createdAt,value
2022-10-15T00:01:10.247Z,12.45
2022-10-15T00:06:14.361Z,12.34
2022-10-15T00:11:18.539Z,12.24
2022-10-15T00:16:22.696Z,12.13
2022-10-15T00:21:26.861Z,12.22
2022-10-15T00:26:31.017Z,12.37
2022-10-15T00:31:35.195Z,12.36
2022-10-15T00:36:39.335Z,12.36
2022-10-15T00:41:43.527Z,12.23
2022-10-15T00:46:47.660Z,12.12
2022-10-15T00:51:51.850Z,12.03
2022-10-15T00:56:55.969Z,11.93
2022-10-15T01:02:00.127Z,11.86
2022-10-15T01:07:04.369Z,11.75
2022-10-15T01:12:08.455Z,11.64
2022-10-15T01:17:12.616Z,11.56
2022-10-15T01:22:16.804Z,11.47
2022-10-15T01:27:21.138Z,11.43
2022-10-15T01:32:25.131Z,11.37
2022-10-15T01:37:29.261Z,11.26
2022-10-15T01:42:33.441Z,11.27
2022-10-15T01:47:37.586Z,11.39
2022-10-15T01:52:41.731Z,11.52
2022-10-15T01:57:45.915Z,11.60
2022-10-15T02:02:50.051Z,11.60
2022-10-15T02:07:54.255Z,11.58
2022-10-15T02:12:56.486Z,11.67
2022-10-15T02:18:00.686Z,11.71
2022-10-15T02:23:04.812Z,11.78
2022-10-15T02:28:09.003Z,11.77
2022-10-15T02:33:13.167Z,11.70
2022-10-15T02:38:17.291Z,11.63
2022-10-15T02:43:19.581Z,11.55
2022-10-15T02:48:23.723Z,11.53
2022-10-15T02:53:27.888Z,11.57
2022-10-15T02:58:32.068Z,11.65
2022-10-15T03:03:36.201Z,11.67
2022-10-15T03:08:40.383Z,11.66
2022-10-15T03:13:44.546Z,11.60
2022-10-15T03:18:48.687Z,11.58
2022-10-15T03:23:52.865Z,11.69
2022-10-15T03:28:57.095Z,11.76
2022-10-15T03:34:01.197Z,11.75
2022-10-15T03:39:05.334Z,11.80
2022-10-15T03:44:09.512Z,11.75
2022-10-15T03:49:13.686Z,11.69
2022-10-15T03:54:17.894Z,11.54
2022-10-15T03:59:22.100Z,11.42
2022-10-15T04:04:26.133Z,11.30
2022-10-15T04:09:30.327Z,11.27
2022-10-15T04:14:34.481Z,11.43
2022-10-15T04:19:38.638Z,11.59
2022-10-15T04:24:42.769Z,11.62
2022-10-15T04:29:46.933Z,11.64
2022-10-15T04:34:51.139Z,11.78
2022-10-15T04:39:55.264Z,11.78
2022-10-15T04:44:59.442Z,11.80
2022-10-15T04:50:03.619Z,11.74
2022-10-15T04:55:07.778Z,11.74
2022-10-15T05:00:11.915Z,11.83
2022-10-15T05:05:16.075Z,11.92
2022-10-15T05:10:20.240Z,12.05
2022-10-15T05:15:24.426Z,12.09
2022-10-15T05:20:28.584Z,12.06
2022-10-15T05:25:32.720Z,11.98
2022-10-15T05:30:36.897Z,11.87
2022-10-15T05:35:41.046Z,11.67
2022-10-15T05:40:45.187Z,11.54
2022-10-15T05:45:49.389Z,11.65
2022-10-15T05:50:53.521Z,11.69
2022-10-15T05:55:57.706Z,11.72
2022-10-15T06:01:01.914Z,11.71
2022-10-15T06:06:06.036Z,11.83
2022-10-15T06:11:10.201Z,12.04
2022-10-15T06:16:16.600Z,12.14
2022-10-15T06:21:18.489Z,12.28
2022-10-15T06:26:22.677Z,12.36
2022-10-15T06:31:26.841Z,12.45
2022-10-15T06:36:30.957Z,12.60
2022-10-15T06:41:35.142Z,12.66
2022-10-15T06:46:39.290Z,12.74
2022-10-15T06:51:43.471Z,12.86
2022-10-15T06:56:47.632Z,12.95
2022-10-15T07:01:51.795Z,13.04
2022-10-15T07:06:55.955Z,13.10
2022-10-15T07:12:00.116Z,13.18
2022-10-15T07:17:04.240Z,13.20
2022-10-15T07:22:08.423Z,13.21
2022-10-15T07:27:19.427Z,13.16
2022-10-15T07:32:16.763Z,13.26
2022-10-15T07:37:20.907Z,13.30
2022-10-15T07:42:25.051Z,13.38
2022-10-15T07:47:29.212Z,13.48
2022-10-15T07:52:33.394Z,13.54
2022-10-15T07:57:37.517Z,13.72
2022-10-15T08:02:41.722Z,13.90
2022-10-15T08:07:45.954Z,14.00
2022-10-15T08:12:48.159Z,14.11
2022-10-15T08:17:52.281Z,14.29
2022-10-15T08:22:56.427Z,14.39
2022-10-15T08:28:00.704Z,14.50
2022-10-15T08:33:04.756Z,14.65
2022-10-15T08:38:08.928Z,14.68
2022-10-15T08:43:13.080Z,14.66
2022-10-15T08:48:17.284Z,14.80
2022-10-15T08:53:21.393Z,14.88
2022-10-15T08:58:25.563Z,15.10
2022-10-15T09:03:29.758Z,15.12
2022-10-15T09:08:33.923Z,15.24
2022-10-15T09:13:38.037Z,15.35
2022-10-15T09:18:42.235Z,15.50
2022-10-15T09:23:46.407Z,15.63
2022-10-15T09:28:50.631Z,15.58
2022-10-15T09:33:54.710Z,15.54
2022-10-15T09:38:58.868Z,15.89
2022-10-15T09:44:05.669Z,16.02
2022-10-15T09:49:07.178Z,16.09
2022-10-15T09:54:11.340Z,16.14
2022-10-15T09:59:15.473Z,16.49
2022-10-15T10:04:19.647Z,16.66
2022-10-15T10:09:23.785Z,16.67
2022-10-15T10:14:27.963Z,16.64
2022-10-15T10:19:32.112Z,16.84
2022-10-15T10:24:36.273Z,17.11
2022-10-15T10:29:40.470Z,17.60
2022-10-15T10:34:48.741Z,17.77
2022-10-15T10:39:48.757Z,18.05
2022-10-15T10:44:52.933Z,17.71
2022-10-15T10:49:57.056Z,17.66
2022-10-15T10:55:01.265Z,17.61
2022-10-15T11:00:05.470Z,17.60
2022-10-15T11:05:09.584Z,17.47
2022-10-15T11:10:13.728Z,17.50
2022-10-15T11:15:17.915Z,17.49
2022-10-15T11:20:42.954Z,17.50
2022-10-15T11:25:26.168Z,17.68
2022-10-15T11:30:30.352Z,17.86
2022-10-15T11:35:52.053Z,17.72
2022-10-15T11:40:38.687Z,18.10
2022-10-15T11:45:42.806Z,18.17
2022-10-15T11:50:47.028Z,18.25
2022-10-15T11:55:51.160Z,18.39
2022-10-15T12:00:55.328Z,18.47
2022-10-15T12:05:59.455Z,18.63
2022-10-15T12:11:03.627Z,18.54
2022-10-15T12:16:07.813Z,18.38
2022-10-15T12:21:11.938Z,18.27
2022-10-15T12:26:16.103Z,18.22
2022-10-15T12:31:20.284Z,18.07
2022-10-15T12:36:24.413Z,17.83
2022-10-15T12:41:28.564Z,17.93
2022-10-15T12:46:32.769Z,18.07
2022-10-15T12:51:36.902Z,18.10
2022-10-15T12:56:41.176Z,18.12
2022-10-15T13:01:45.241Z,18.22
2022-10-15T13:06:49.383Z,18.24
2022-10-15T13:11:53.590Z,18.38
2022-10-15T13:16:57.695Z,18.38
2022-10-15T13:22:01.865Z,18.53
2022-10-15T13:27:06.047Z,18.57
2022-10-15T13:32:10.307Z,18.57
2022-10-15T13:37:14.345Z,18.53
2022-10-15T13:42:16.588Z,18.59
2022-10-15T13:47:20.752Z,18.85
2022-10-15T13:52:25.377Z,19.09
2022-10-15T13:57:29.078Z,18.82
2022-10-15T14:02:33.215Z,18.88
2022-10-15T14:07:37.377Z,18.90
2022-10-15T14:12:41.551Z,18.90
2022-10-15T14:17:45.730Z,18.69
2022-10-15T14:22:49.875Z,18.50
2022-10-15T14:27:54.025Z,18.51
2022-10-15T14:32:58.202Z,18.46
2022-10-15T14:38:02.363Z,18.43
2022-10-15T14:43:06.494Z,18.41
2022-10-15T14:48:10.697Z,18.45
2022-10-15T14:53:14.828Z,18.37
2022-10-15T14:58:18.962Z,18.33
2022-10-15T15:03:23.193Z,18.28
2022-10-15T15:08:27.332Z,18.17
2022-10-15T15:13:31.469Z,18.07
2022-10-15T15:18:35.634Z,18.08
2022-10-15T15:23:39.761Z,18.10
2022-10-15T15:28:44.000Z,18.06
2022-10-15T15:33:48.112Z,17.98
2022-10-15T15:38:52.248Z,17.92
2022-10-15T15:43:56.411Z,17.85
2022-10-15T15:49:00.587Z,17.81
2022-10-15T15:54:04.736Z,17.74
2022-10-15T15:59:08.872Z,17.56
2022-10-15T16:04:13.047Z,17.39
2022-10-15T16:09:17.219Z,17.20
2022-10-15T16:14:21.372Z,17.12
2022-10-15T16:19:25.531Z,17.02
2022-10-15T16:24:29.676Z,16.96
2022-10-15T16:29:33.868Z,16.87
2022-10-15T16:34:38.025Z,16.79
2022-10-15T16:39:42.163Z,16.68
2022-10-15T16:44:46.364Z,16.60
2022-10-15T16:49:50.513Z,16.57
2022-10-15T16:54:54.640Z,16.55
2022-10-15T16:59:59.291Z,16.53
2022-10-15T17:05:02.985Z,16.49
2022-10-15T17:10:10.792Z,16.45
2022-10-15T17:15:11.271Z,16.38
2022-10-15T17:20:15.473Z,16.34
2022-10-15T17:25:19.638Z,16.27
2022-10-15T17:30:23.789Z,16.19
2022-10-15T17:35:27.950Z,16.14
2022-10-15T17:40:32.165Z,16.12
2022-10-15T17:45:36.262Z,16.10
2022-10-15T17:50:44.563Z,16.03
2022-10-15T17:55:44.562Z,15.99
2022-10-15T18:00:48.716Z,15.92
2022-10-15T18:05:52.860Z,15.88
2022-10-15T18:10:57.037Z,15.85
2022-10-15T18:16:01.203Z,15.80
2022-10-15T18:21:05.372Z,15.77
2022-10-15T18:26:09.520Z,15.74
2022-10-15T18:31:13.681Z,15.67
2022-10-15T18:36:17.860Z,15.60
2022-10-15T18:41:22.024Z,15.51
2022-10-15T18:46:26.172Z,15.40
2022-10-15T18:51:30.324Z,15.31
2022-10-15T18:56:34.462Z,15.28
2022-10-15T19:01:38.722Z,15.19
2022-10-15T19:06:42.826Z,15.09
2022-10-15T19:11:45.055Z,14.97
2022-10-15T19:16:49.212Z,14.84
2022-10-15T19:21:53.397Z,14.75
2022-10-15T19:26:57.665Z,14.59
2022-10-15T19:32:01.722Z,14.49
2022-10-15T19:37:05.878Z,14.41
2022-10-15T19:42:08.157Z,14.30
2022-10-15T19:47:12.287Z,14.15
2022-10-15T19:52:16.477Z,14.12
2022-10-15T19:57:20.606Z,14.14
2022-10-15T20:02:24.771Z,14.17
2022-10-15T20:07:28.953Z,14.14
2022-10-15T20:12:33.117Z,14.12
2022-10-15T20:17:37.255Z,14.13
2022-10-15T20:22:41.463Z,14.11
2022-10-15T20:27:45.591Z,14.05
2022-10-15T20:32:49.728Z,13.98
2022-10-15T20:37:54.032Z,13.90
2022-10-15T20:42:58.051Z,13.84
2022-10-15T20:48:02.199Z,13.78
2022-10-15T20:53:06.365Z,13.64
2022-10-15T20:58:10.628Z,13.72
2022-10-15T21:03:14.709Z,13.74
2022-10-15T21:08:18.875Z,13.76
2022-10-15T21:13:24.574Z,13.80
2022-10-15T21:18:27.186Z,13.84
2022-10-15T21:23:31.339Z,13.83
2022-10-15T21:28:35.543Z,13.90
2022-10-15T21:33:39.709Z,13.96
2022-10-15T21:38:43.835Z,14.03
2022-10-15T21:43:47.952Z,14.09
2022-10-15T21:48:52.142Z,14.13
2022-10-15T21:53:56.318Z,14.13
2022-10-15T21:59:00.470Z,14.13
2022-10-15T22:04:04.632Z,14.09
2022-10-15T22:09:08.784Z,14.04
2022-10-15T22:14:12.920Z,13.91
2022-10-15T22:19:17.083Z,13.86
2022-10-15T22:24:21.251Z,13.82
2022-10-15T22:34:29.615Z,13.74
2022-10-15T22:39:33.714Z,13.74
2022-10-15T22:44:37.896Z,13.74
2022-10-15T22:49:42.054Z,13.66
2022-10-15T22:54:46.231Z,13.59
2022-10-15T22:59:50.387Z,13.59
2022-10-15T23:04:54.566Z,13.52
2022-10-15T23:09:58.698Z,13.44
2022-10-15T23:15:02.847Z,13.31
2022-10-15T23:20:07.021Z,13.19
2022-10-15T23:25:11.188Z,13.12
2022-10-15T23:30:24.722Z,12.98
2022-10-15T23:35:19.526Z,12.96
2022-10-15T23:40:23.665Z,12.93
2022-10-15T23:45:27.808Z,12.94
2022-10-15T23:50:31.960Z,12.87
2022-10-15T23:55:36.168Z,12.88
